createdAt,value
2022-10-15T00:01:28.949Z,44.42
2022-10-15T00:06:32.371Z,41.28
2022-10-15T00:09:01.727Z,47.95
2022-10-15T00:11:29.363Z,42.70
2022-10-15T00:13:58.422Z,47.67
2022-10-15T00:16:27.146Z,42.65
2022-10-15T00:18:57.707Z,42.30
2022-10-15T00:21:24.505Z,38.38
2022-10-15T00:23:51.258Z,40.33
2022-10-15T00:26:20.890Z,40.10
2022-10-15T00:28:53.073Z,41.08
2022-10-15T00:31:23.092Z,45.45
2022-10-15T00:33:51.303Z,43.92
2022-10-15T00:36:23.037Z,42.78
2022-10-15T00:38:52.846Z,40.30
2022-10-15T00:41:23.713Z,49.22
2022-10-15T00:43:53.257Z,51.20
2022-10-15T00:46:31.669Z,44.88
2022-10-15T00:49:12.212Z,47.58
2022-10-15T00:51:44.631Z,50.45
2022-10-15T00:54:12.753Z,44.33
2022-10-15T00:56:41.917Z,47.78
2022-10-15T00:59:09.804Z,52.58
2022-10-15T01:01:36.718Z,46.25
2022-10-15T01:04:05.883Z,49.95
2022-10-15T01:06:33.012Z,50.55
2022-10-15T01:09:01.076Z,49.33
2022-10-15T01:11:46.752Z,48.25
2022-10-15T01:14:25.386Z,48.20
2022-10-15T01:16:58.181Z,54.20
2022-10-15T01:19:50.124Z,50.65
2022-10-15T01:24:52.398Z,49.70
2022-10-15T01:27:31.208Z,48.72
2022-10-15T01:30:18.983Z,52.58
2022-10-15T01:33:03.435Z,54.50
2022-10-15T01:35:54.438Z,53.38
2022-10-15T01:38:42.437Z,54.37
2022-10-15T01:41:33.261Z,49.55
2022-10-15T01:44:15.958Z,51.60
2022-10-15T01:46:50.868Z,53.65
2022-10-15T01:49:21.474Z,51.10
2022-10-15T01:51:50.560Z,54.10
2022-10-15T01:54:19.238Z,49.05
2022-10-15T01:56:51.603Z,54.33
2022-10-15T01:59:25.888Z,48.75
2022-10-15T02:01:54.997Z,49.72
2022-10-15T02:07:07.165Z,48.72
2022-10-15T02:12:21.517Z,54.33
2022-10-15T02:15:01.369Z,50.70
2022-10-15T02:18:02.943Z,50.35
2022-10-15T02:20:41.487Z,55.30
2022-10-15T02:23:24.505Z,53.90
2022-10-15T02:25:56.061Z,60.22
2022-10-15T02:28:25.801Z,59.72
2022-10-15T02:30:54.372Z,60.40
2022-10-15T02:33:23.205Z,54.88
2022-10-15T02:35:51.529Z,60.00
2022-10-15T02:38:22.918Z,60.47
2022-10-15T02:40:50.620Z,59.92
2022-10-15T02:43:20.343Z,128.13
2022-10-15T02:45:48.282Z,66.80
2022-10-15T02:48:15.398Z,61.13
2022-10-15T02:50:44.213Z,62.70
2022-10-15T02:53:10.922Z,57.80
2022-10-15T02:55:37.934Z,63.53
2022-10-15T02:58:04.795Z,66.95
2022-10-15T03:00:31.657Z,67.53
2022-10-15T03:02:58.417Z,63.40
2022-10-15T03:05:25.260Z,60.42
2022-10-15T03:07:52.658Z,63.30
2022-10-15T03:10:19.382Z,60.65
2022-10-15T03:12:46.078Z,63.72
2022-10-15T03:15:12.929Z,63.08
2022-10-15T03:17:39.686Z,61.08
2022-10-15T03:20:06.802Z,63.33
2022-10-15T03:22:33.711Z,67.50
2022-10-15T03:25:00.446Z,61.40
2022-10-15T03:27:27.294Z,64.38
2022-10-15T03:29:56.251Z,59.88
2022-10-15T03:32:25.117Z,62.05
2022-10-15T03:34:54.085Z,65.03
2022-10-15T03:37:21.478Z,62.63
2022-10-15T03:39:50.846Z,66.03
2022-10-15T03:42:19.957Z,65.28
2022-10-15T03:44:48.873Z,61.88
2022-10-15T03:47:15.713Z,66.18
2022-10-15T03:49:42.417Z,64.32
2022-10-15T03:52:09.130Z,65.50
2022-10-15T03:54:35.900Z,65.88
2022-10-15T03:57:04.810Z,69.55
2022-10-15T03:59:32.770Z,62.78
2022-10-15T04:01:59.491Z,69.93
2022-10-15T04:04:28.584Z,61.92
2022-10-15T04:06:57.533Z,65.25
2022-10-15T04:09:24.273Z,66.57
2022-10-15T04:11:50.968Z,68.15
2022-10-15T04:14:19.398Z,66.50
2022-10-15T04:16:46.242Z,65.95
2022-10-15T04:19:12.968Z,71.20
2022-10-15T04:21:39.646Z,67.30
2022-10-15T04:24:06.429Z,66.40
2022-10-15T04:26:33.274Z,63.60
2022-10-15T04:29:02.532Z,63.90
2022-10-15T04:31:29.320Z,55.58
2022-10-15T04:33:58.583Z,56.97
2022-10-15T04:36:25.475Z,56.13
2022-10-15T04:38:55.625Z,63.28
2022-10-15T04:41:22.433Z,59.63
2022-10-15T04:43:51.600Z,62.83
2022-10-15T04:46:18.539Z,59.08
2022-10-15T04:48:48.610Z,57.40
2022-10-15T04:51:17.737Z,59.03
2022-10-15T04:53:44.635Z,53.22
2022-10-15T04:56:18.104Z,54.97
2022-10-15T04:58:46.826Z,60.50
2022-10-15T05:01:21.881Z,56.95
2022-10-15T05:03:49.560Z,58.45
2022-10-15T05:06:19.302Z,62.63
2022-10-15T05:08:46.761Z,65.68
2022-10-15T05:11:22.226Z,63.35
2022-10-15T05:13:50.133Z,61.20
2022-10-15T05:16:19.674Z,64.57
2022-10-15T05:18:48.697Z,62.17
2022-10-15T05:21:16.582Z,65.88
2022-10-15T05:23:44.225Z,66.70
2022-10-15T05:26:16.836Z,63.08
2022-10-15T05:28:44.003Z,67.47
2022-10-15T05:31:18.394Z,64.45
2022-10-15T05:33:46.823Z,61.83
2022-10-15T05:36:20.221Z,62.00
2022-10-15T05:38:49.985Z,61.15
2022-10-15T05:41:17.419Z,63.53
2022-10-15T05:43:47.518Z,63.28
2022-10-15T05:46:14.714Z,62.03
2022-10-15T05:48:41.557Z,60.30
2022-10-15T05:51:12.073Z,53.35
2022-10-15T05:53:39.711Z,53.50
2022-10-15T05:56:08.158Z,56.05
2022-10-15T05:58:37.415Z,60.80
2022-10-15T06:01:10.290Z,60.47
2022-10-15T06:03:37.467Z,58.17
2022-10-15T06:06:04.852Z,59.03
2022-10-15T06:08:34.045Z,54.83
2022-10-15T06:11:08.371Z,55.47
2022-10-15T06:13:39.096Z,52.03
2022-10-15T06:16:08.353Z,53.10
2022-10-15T06:18:36.443Z,49.13
2022-10-15T06:21:03.378Z,52.92
2022-10-15T06:23:30.512Z,53.30
2022-10-15T06:26:01.665Z,53.83
2022-10-15T06:28:28.683Z,53.03
2022-10-15T06:30:58.993Z,54.45
2022-10-15T06:33:29.618Z,51.75
2022-10-15T06:36:09.202Z,58.53
2022-10-15T06:38:36.740Z,50.85
2022-10-15T06:41:07.828Z,53.95
2022-10-15T06:43:35.374Z,58.97
2022-10-15T06:46:04.144Z,62.72
2022-10-15T06:48:33.371Z,66.15
2022-10-15T06:51:01.740Z,70.53
2022-10-15T06:53:29.470Z,69.40
2022-10-15T06:56:04.125Z,71.22
2022-10-15T06:58:33.252Z,76.53
2022-10-15T07:01:01.762Z,71.68
2022-10-15T07:03:29.308Z,72.93
2022-10-15T07:05:56.845Z,72.85
2022-10-15T07:08:25.366Z,75.70
2022-10-15T07:10:52.048Z,70.82
2022-10-15T07:13:18.788Z,77.72
2022-10-15T07:15:49.574Z,75.03
2022-10-15T07:18:18.536Z,71.23
2022-10-15T07:20:45.740Z,66.90
2022-10-15T07:23:12.462Z,73.97
2022-10-15T07:25:39.364Z,72.25
2022-10-15T07:28:06.443Z,71.60
2022-10-15T07:30:33.228Z,71.72
2022-10-15T07:33:00.290Z,65.38
2022-10-15T07:35:27.410Z,58.05
2022-10-15T07:37:55.115Z,57.70
2022-10-15T07:40:21.991Z,53.28
2022-10-15T07:42:56.319Z,51.58
2022-10-15T07:45:23.813Z,49.13
2022-10-15T07:47:53.236Z,48.15
2022-10-15T07:50:20.916Z,48.47
2022-10-15T07:52:47.977Z,48.05
2022-10-15T07:55:15.087Z,49.80
2022-10-15T07:57:41.826Z,51.33
2022-10-15T08:00:09.296Z,54.55
2022-10-15T08:02:39.845Z,60.67
2022-10-15T08:05:07.247Z,60.30
2022-10-15T08:07:34.463Z,61.53
2022-10-15T08:10:01.186Z,62.53
2022-10-15T08:12:28.078Z,72.65
2022-10-15T08:14:57.325Z,78.90
2022-10-15T08:17:26.282Z,76.72
2022-10-15T08:19:53.143Z,74.00
2022-10-15T08:22:22.352Z,74.88
2022-10-15T08:24:51.473Z,82.40
2022-10-15T08:27:18.504Z,74.72
2022-10-15T08:29:47.568Z,69.68
2022-10-15T08:32:14.321Z,68.47
2022-10-15T08:34:41.111Z,72.80
2022-10-15T08:37:10.264Z,65.25
2022-10-15T08:39:37.128Z,61.17
2022-10-15T08:42:08.013Z,58.35
2022-10-15T08:44:50.064Z,54.10
2022-10-15T08:47:47.032Z,55.78
2022-10-15T08:50:35.856Z,49.85
2022-10-15T08:53:02.750Z,49.92
2022-10-15T08:55:41.124Z,49.15
2022-10-15T08:58:30.974Z,52.28
2022-10-15T09:01:06.739Z,47.83
2022-10-15T09:04:07.236Z,43.58
2022-10-15T09:06:38.685Z,43.35
2022-10-15T09:09:35.026Z,43.33
2022-10-15T09:12:22.365Z,42.38
2022-10-15T09:14:49.868Z,44.05
2022-10-15T09:17:23.591Z,39.38
2022-10-15T09:19:55.626Z,43.25
2022-10-15T09:22:26.415Z,41.85
2022-10-15T09:24:56.597Z,40.30
2022-10-15T09:27:31.496Z,39.67
2022-10-15T09:30:12.992Z,44.88
2022-10-15T09:32:51.934Z,39.60
2022-10-15T09:35:34.289Z,42.58
2022-10-15T09:38:05.967Z,42.50
2022-10-15T09:40:51.185Z,37.42
2022-10-15T09:43:27.718Z,36.47
2022-10-15T09:45:54.848Z,38.03
2022-10-15T09:48:25.741Z,33.90
2022-10-15T09:51:02.043Z,36.10
2022-10-15T09:53:58.591Z,35.00
2022-10-15T09:56:47.978Z,29.63
2022-10-15T09:59:19.949Z,32.97
2022-10-15T10:02:25.853Z,28.40
2022-10-15T10:04:53.642Z,21.25
2022-10-15T10:07:38.951Z,22.33
2022-10-15T10:10:27.389Z,23.73
2022-10-15T10:12:56.884Z,22.45
2022-10-15T10:15:40.248Z,19.33
2022-10-15T10:18:19.866Z,19.40
2022-10-15T10:20:59.719Z,18.65
2022-10-15T10:23:31.952Z,18.15
2022-10-15T10:26:00.027Z,18.67
2022-10-15T10:28:57.033Z,16.20
2022-10-15T10:31:35.979Z,17.02
2022-10-15T10:34:04.021Z,13.13
2022-10-15T10:36:39.422Z,16.95
2022-10-15T10:39:14.490Z,15.32
2022-10-15T10:42:00.854Z,15.05
2022-10-15T10:44:30.573Z,15.35
2022-10-15T10:47:11.112Z,14.45
2022-10-15T10:50:14.594Z,14.80
2022-10-15T10:52:41.421Z,13.10
2022-10-15T10:55:18.499Z,12.55
2022-10-15T10:57:54.537Z,13.05
2022-10-15T11:00:42.792Z,11.23
2022-10-15T11:03:38.570Z,13.60
2022-10-15T11:06:27.431Z,12.57
2022-10-15T11:09:17.421Z,12.93
2022-10-15T11:12:04.797Z,13.32
2022-10-15T11:14:52.812Z,15.80
2022-10-15T11:17:46.288Z,14.73
2022-10-15T11:20:57.786Z,14.32
2022-10-15T11:23:33.371Z,15.55
2022-10-15T11:26:19.872Z,14.85
2022-10-15T11:28:46.763Z,17.55
2022-10-15T11:31:40.400Z,17.38
2022-10-15T11:34:45.166Z,17.92
2022-10-15T11:37:33.026Z,17.13
2022-10-15T11:40:17.659Z,17.60
2022-10-15T11:42:50.101Z,16.63
2022-10-15T11:45:48.787Z,16.55
2022-10-15T11:48:41.869Z,15.77
2022-10-15T11:51:17.269Z,15.55
2022-10-15T11:53:47.042Z,16.88
2022-10-15T11:56:17.385Z,13.20
2022-10-15T11:58:50.575Z,12.65
2022-10-15T12:01:30.784Z,14.60
2022-10-15T12:04:02.593Z,12.65
2022-10-15T12:06:36.587Z,11.95
2022-10-15T12:09:08.017Z,10.82
2022-10-15T12:12:03.607Z,10.20
2022-10-15T12:14:43.667Z,9.45
2022-10-15T12:17:40.627Z,8.05
2022-10-15T12:20:12.675Z,8.80
2022-10-15T12:23:01.373Z,9.70
2022-10-15T12:25:36.660Z,7.00
2022-10-15T12:28:12.377Z,7.30
2022-10-15T12:30:44.319Z,6.90
2022-10-15T12:33:25.387Z,7.47
2022-10-15T12:36:19.380Z,7.15
2022-10-15T12:39:16.059Z,7.85
2022-10-15T12:41:54.014Z,7.00
2022-10-15T12:44:30.934Z,5.68
2022-10-15T12:46:59.046Z,7.00
2022-10-15T12:49:32.366Z,7.78
2022-10-15T12:52:00.291Z,5.68
2022-10-15T12:54:40.209Z,4.82
2022-10-15T12:57:32.006Z,4.47
2022-10-15T13:02:46.870Z,3.28
2022-10-15T13:05:28.587Z,2.72
2022-10-15T13:10:48.815Z,2.40
2022-10-15T13:13:19.952Z,2.63
2022-10-15T13:16:14.001Z,4.75
2022-10-15T13:18:45.280Z,3.63
2022-10-15T13:21:13.801Z,3.22
2022-10-15T13:23:49.355Z,3.28
2022-10-15T13:26:25.514Z,1.50
2022-10-15T13:28:55.037Z,3.28
2022-10-15T13:31:30.630Z,5.03
2022-10-15T13:34:23.376Z,3.70
2022-10-15T13:36:52.559Z,5.35
2022-10-15T13:39:39.417Z,5.07
2022-10-15T13:42:21.209Z,3.83
2022-10-15T13:45:11.879Z,5.78
2022-10-15T13:47:46.751Z,3.97
2022-10-15T13:50:27.306Z,5.45
2022-10-15T13:53:18.062Z,4.63
2022-10-15T13:55:48.192Z,3.67
2022-10-15T13:58:26.655Z,5.47
2022-10-15T14:01:08.762Z,3.35
2022-10-15T14:03:37.925Z,5.68
2022-10-15T14:06:27.616Z,4.28
2022-10-15T14:08:58.957Z,5.60
2022-10-15T14:11:26.749Z,4.78
2022-10-15T14:13:58.533Z,3.97
2022-10-15T14:16:30.915Z,3.80
2022-10-15T14:19:09.709Z,4.03
2022-10-15T14:21:37.677Z,5.78
2022-10-15T14:24:12.259Z,7.05
2022-10-15T14:26:39.579Z,5.75
2022-10-15T14:29:07.368Z,4.13
2022-10-15T14:31:42.929Z,5.43
2022-10-15T14:34:49.709Z,5.35
2022-10-15T14:37:37.400Z,5.35
2022-10-15T14:40:23.109Z,5.82
2022-10-15T14:42:58.134Z,5.60
2022-10-15T14:45:31.218Z,5.55
2022-10-15T14:48:00.732Z,4.90
2022-10-15T14:50:36.401Z,3.40
2022-10-15T14:53:09.174Z,4.93
2022-10-15T14:55:41.657Z,4.72
2022-10-15T14:58:11.123Z,4.25
2022-10-15T15:00:42.201Z,3.85
2022-10-15T15:03:27.215Z,6.40
2022-10-15T15:05:56.462Z,3.40
2022-10-15T15:08:24.984Z,5.45
2022-10-15T15:10:54.510Z,8.73
2022-10-15T15:13:23.739Z,6.72
2022-10-15T15:15:50.556Z,8.63
2022-10-15T15:18:17.609Z,6.57
2022-10-15T15:20:46.416Z,4.22
2022-10-15T15:23:25.730Z,5.28
2022-10-15T15:25:54.140Z,5.13
2022-10-15T15:28:23.577Z,3.85
2022-10-15T15:31:08.218Z,3.28
2022-10-15T15:33:35.361Z,6.20
2022-10-15T15:36:11.231Z,4.68
2022-10-15T15:38:37.955Z,4.35
2022-10-15T15:41:21.791Z,4.22
2022-10-15T15:43:49.100Z,8.32
2022-10-15T15:46:16.707Z,3.97
2022-10-15T15:48:46.434Z,4.13
2022-10-15T15:51:28.217Z,7.13
2022-10-15T15:53:56.314Z,9.25
2022-10-15T15:56:23.563Z,5.80
2022-10-15T15:58:51.311Z,9.57
2022-10-15T16:01:19.573Z,7.72
2022-10-15T16:03:49.350Z,7.68
2022-10-15T16:06:16.210Z,8.20
2022-10-15T16:08:42.990Z,6.22
2022-10-15T16:11:09.842Z,9.77
2022-10-15T16:13:39.437Z,11.05
2022-10-15T16:16:07.462Z,12.20
2022-10-15T16:18:34.404Z,10.13
2022-10-15T16:21:03.235Z,10.75
2022-10-15T16:23:32.231Z,12.52
2022-10-15T16:26:01.215Z,9.85
2022-10-15T16:28:28.222Z,12.52
2022-10-15T16:31:13.114Z,7.55
2022-10-15T16:33:42.521Z,10.15
2022-10-15T16:36:12.478Z,10.18
2022-10-15T16:38:43.134Z,10.63
2022-10-15T16:41:11.440Z,9.43
2022-10-15T16:43:38.398Z,10.15
2022-10-15T16:46:05.806Z,10.68
2022-10-15T16:48:33.807Z,11.52
2022-10-15T16:51:04.732Z,10.27
2022-10-15T16:53:38.809Z,12.27
2022-10-15T16:56:09.887Z,15.30
2022-10-15T16:58:36.877Z,12.00
2022-10-15T17:01:07.295Z,11.20
2022-10-15T17:03:35.986Z,11.25
2022-10-15T17:06:05.599Z,11.02
2022-10-15T17:08:39.773Z,15.93
2022-10-15T17:11:34.774Z,12.57
2022-10-15T17:14:04.574Z,9.70
2022-10-15T17:16:37.570Z,13.40
2022-10-15T17:19:10.192Z,14.00
2022-10-15T17:21:42.632Z,17.40
2022-10-15T17:24:12.441Z,10.07
2022-10-15T17:26:41.515Z,11.70
2022-10-15T17:29:19.645Z,12.98
2022-10-15T17:31:50.383Z,12.20
2022-10-15T17:34:22.719Z,16.03
2022-10-15T17:36:53.949Z,10.52
2022-10-15T17:39:23.959Z,13.60
2022-10-15T17:41:51.938Z,13.10
2022-10-15T17:44:20.567Z,9.73
2022-10-15T17:49:18.449Z,16.17
2022-10-15T17:51:46.234Z,14.88
2022-10-15T17:54:12.975Z,11.93
2022-10-15T17:56:40.206Z,10.63
2022-10-15T17:59:10.362Z,11.57
2022-10-15T18:01:57.337Z,10.93
2022-10-15T18:04:24.803Z,15.90
2022-10-15T18:06:51.694Z,7.50
2022-10-15T18:09:20.968Z,8.13
2022-10-15T18:11:49.080Z,10.48
2022-10-15T18:14:18.645Z,13.50
2022-10-15T18:16:47.987Z,8.77
2022-10-15T18:19:17.719Z,8.95
2022-10-15T18:21:49.763Z,8.38
2022-10-15T18:24:20.018Z,9.40
2022-10-15T18:26:47.017Z,6.47
2022-10-15T18:29:16.018Z,9.13
2022-10-15T18:31:44.865Z,7.35
2022-10-15T18:34:11.560Z,9.88
2022-10-15T18:36:41.532Z,9.10
2022-10-15T18:39:11.593Z,9.60
2022-10-15T18:41:41.551Z,12.07
2022-10-15T18:44:14.811Z,11.18
2022-10-15T18:46:43.919Z,5.82
2022-10-15T18:49:11.973Z,8.23
2022-10-15T18:51:38.828Z,7.25
2022-10-15T18:54:07.737Z,6.25
2022-10-15T18:56:34.681Z,10.75
2022-10-15T18:59:01.633Z,10.35
2022-10-15T19:01:31.450Z,9.13
2022-10-15T19:04:00.842Z,7.93
2022-10-15T19:06:32.326Z,7.63
2022-10-15T19:09:00.849Z,8.38
2022-10-15T19:11:28.101Z,8.90
2022-10-15T19:13:57.656Z,6.80
2022-10-15T19:16:24.513Z,8.85
2022-10-15T19:18:51.577Z,7.93
2022-10-15T19:21:21.604Z,8.63
2022-10-15T19:23:51.158Z,8.32
2022-10-15T19:26:18.342Z,8.18
2022-10-15T19:28:46.846Z,9.07
2022-10-15T19:31:26.642Z,8.05
2022-10-15T19:33:54.328Z,6.43
2022-10-15T19:36:23.412Z,7.45
2022-10-15T19:38:50.637Z,10.15
2022-10-15T19:41:20.214Z,7.97
2022-10-15T19:43:47.319Z,5.43
2022-10-15T19:46:14.772Z,10.88
2022-10-15T19:48:42.442Z,8.25
2022-10-15T19:51:09.196Z,6.78
2022-10-15T19:53:36.077Z,5.22
2022-10-15T19:56:08.743Z,6.18
2022-10-15T19:58:36.336Z,7.72
2022-10-15T20:01:10.571Z,7.20
2022-10-15T20:03:40.074Z,8.95
2022-10-15T20:06:08.465Z,9.82
2022-10-15T20:08:37.964Z,9.48
2022-10-15T20:11:08.357Z,7.63
2022-10-15T20:13:36.124Z,5.38
2022-10-15T20:16:07.209Z,8.15
2022-10-15T20:18:35.114Z,5.30
2022-10-15T20:21:10.194Z,7.70
2022-10-15T20:23:42.121Z,7.43
2022-10-15T20:26:11.990Z,6.88
2022-10-15T20:28:42.363Z,7.72
2022-10-15T20:31:12.877Z,9.75
2022-10-15T20:33:43.786Z,7.03
2022-10-15T20:36:15.048Z,9.80
2022-10-15T20:38:45.478Z,9.63
2022-10-15T20:41:14.887Z,9.27
2022-10-15T20:43:42.837Z,8.93
2022-10-15T20:46:19.884Z,5.95
2022-10-15T20:48:46.820Z,7.47
2022-10-15T20:51:17.539Z,5.90
2022-10-15T20:53:45.433Z,7.73
2022-10-15T20:56:12.577Z,8.60
2022-10-15T20:58:41.854Z,9.38
2022-10-15T21:01:10.824Z,9.20
2022-10-15T21:03:37.601Z,9.63
2022-10-15T21:06:04.628Z,13.48
2022-10-15T21:08:31.505Z,6.63
2022-10-15T21:11:05.530Z,10.30
2022-10-15T21:13:32.856Z,11.15
2022-10-15T21:16:05.905Z,11.35
2022-10-15T21:18:34.957Z,7.95
2022-10-15T21:21:06.178Z,6.18
2022-10-15T21:23:36.322Z,6.25
2022-10-15T21:26:08.298Z,6.88
2022-10-15T21:28:36.239Z,4.60
2022-10-15T21:31:16.292Z,6.55
2022-10-15T21:33:44.256Z,7.88
2022-10-15T21:36:22.028Z,5.78
2022-10-15T21:38:53.723Z,10.15
2022-10-15T21:41:21.382Z,5.00
2022-10-15T21:44:08.428Z,5.32
2022-10-15T21:46:36.010Z,4.30
2022-10-15T21:49:03.459Z,6.03
2022-10-15T21:51:32.448Z,4.38
2022-10-15T21:53:59.959Z,6.60
2022-10-15T21:56:27.378Z,10.43
2022-10-15T21:58:54.694Z,3.42
2022-10-15T22:01:22.676Z,7.75
2022-10-15T22:03:53.290Z,7.75
2022-10-15T22:06:21.032Z,9.50
2022-10-15T22:08:48.450Z,4.38
2022-10-15T22:11:19.845Z,5.72
2022-10-15T22:13:49.465Z,5.72
2022-10-15T22:16:18.001Z,7.22
2022-10-15T22:18:47.184Z,5.53
2022-10-15T22:21:25.689Z,4.35
2022-10-15T22:23:58.185Z,3.95
2022-10-15T22:26:30.657Z,3.55
2022-10-15T22:29:00.870Z,3.85
2022-10-15T22:31:28.682Z,5.07
2022-10-15T22:33:59.022Z,5.05
2022-10-15T22:36:29.710Z,3.92
2022-10-15T22:39:01.368Z,5.43
2022-10-15T22:41:30.083Z,12.63
2022-10-15T22:43:57.452Z,3.45
2022-10-15T22:46:25.279Z,6.60
2022-10-15T22:48:53.656Z,5.07
2022-10-15T22:51:23.205Z,3.03
2022-10-15T22:53:49.899Z,4.82
2022-10-15T22:56:18.704Z,4.47
2022-10-15T22:58:46.458Z,5.97
2022-10-15T23:01:24.850Z,3.40
2022-10-15T23:03:54.441Z,5.20
2022-10-15T23:06:28.002Z,5.93
2022-10-15T23:08:56.375Z,9.52
2022-10-15T23:11:29.258Z,9.07
2022-10-15T23:13:58.691Z,4.18
2022-10-15T23:16:29.046Z,3.00
2022-10-15T23:19:01.370Z,4.80
2022-10-15T23:21:44.186Z,5.78
2022-10-15T23:24:11.716Z,7.07
2022-10-15T23:26:41.102Z,4.10
2022-10-15T23:29:12.882Z,5.18
2022-10-15T23:31:42.463Z,4.10
2022-10-15T23:34:16.465Z,5.03
2022-10-15T23:36:44.223Z,3.83
2022-10-15T23:39:14.311Z,3.58
2022-10-15T23:41:43.759Z,4.72
2022-10-15T23:44:12.680Z,4.22
2022-10-15T23:46:39.662Z,2.95
2022-10-15T23:49:08.555Z,4.82
2022-10-15T23:51:35.837Z,4.13
2022-10-15T23:54:03.823Z,4.10
2022-10-15T23:56:33.708Z,4.93
2022-10-15T23:59:01.260Z,5.20
